Time;durP1;ratioP1;P1;durP2;ratioP2;P2;SDS_P1;SDS_P2;PMS_P1;PMS_P2;Temp;Humidity;BMP_temperature;BMP_pressure;BME280_temperature;BME280_humidity;BME280_pressure;Samples;Min_cycle;Max_cycle;Signal;HPM_P1;HPM_P2
2022/04/05 00:01:29;;;;;;;43.95;23.40;;;11.40;99.90;;;;;;7337364;19;113861;-81
2022/04/05 00:03:56;;;;;;;50.50;23.83;;;11.40;99.90;;;;;;7340611;19;110899;-81
2022/04/05 00:06:23;;;;;;;45.65;25.15;;;11.40;99.90;;;;;;7335086;19;111247;-83
2022/04/05 00:08:51;;;;;;;55.30;25.30;;;11.40;99.90;;;;;;7333610;19;110326;-81
2022/04/05 00:11:18;;;;;;;45.50;23.80;;;11.50;99.90;;;;;;7335127;19;114567;-80
2022/04/05 00:13:45;;;;;;;52.08;25.75;;;11.50;99.90;;;;;;7336844;19;112105;-81
2022/04/05 00:16:12;;;;;;;48.63;24.77;;;11.50;99.90;;;;;;7334986;19;110506;-81
2022/04/05 00:18:39;;;;;;;54.00;25.38;;;11.50;99.90;;;;;;7335654;19;111407;-81
2022/04/05 00:21:06;;;;;;;48.38;25.38;;;11.60;99.90;;;;;;7336070;19;115406;-81
2022/04/05 00:23:34;;;;;;;48.15;25.52;;;11.60;99.90;;;;;;7336019;19;111249;-81
2022/04/05 00:26:01;;;;;;;52.42;26.23;;;11.60;99.90;;;;;;7339495;19;113024;-80
2022/04/05 00:28:28;;;;;;;49.58;24.63;;;11.60;99.90;;;;;;7333593;19;111592;-81
2022/04/05 00:30:56;;;;;;;52.08;24.92;;;11.60;99.90;;;;;;7336647;19;112251;-83
2022/04/05 00:33:23;;;;;;;47.00;25.35;;;11.60;99.90;;;;;;7338394;19;110929;-84
2022/04/05 00:35:51;;;;;;;50.33;25.63;;;11.70;99.90;;;;;;7341469;19;111605;-83
2022/04/05 00:38:18;;;;;;;48.70;25.63;;;11.70;99.90;;;;;;7342935;19;111409;-80
2022/04/05 00:40:46;;;;;;;51.08;24.20;;;11.70;99.90;;;;;;7340786;19;112045;-84
2022/04/05 00:43:13;;;;;;;51.90;24.15;;;11.80;99.90;;;;;;7343487;19;110363;-83
2022/04/05 00:45:40;;;;;;;52.38;24.38;;;11.70;99.90;;;;;;7343240;19;114379;-84
2022/04/05 00:48:08;;;;;;;47.88;24.27;;;11.80;99.90;;;;;;7346343;19;111452;-82
2022/04/05 00:50:37;;;;;;;47.83;25.30;;;11.70;99.90;;;;;;7342441;19;111477;-81
2022/04/05 00:53:07;;;;;;;57.97;26.67;;;11.70;99.90;;;;;;7339448;19;112363;-81
2022/04/05 00:55:36;;;;;;;59.47;26.55;;;11.80;99.90;;;;;;7343805;19;110516;-82
2022/04/05 00:58:03;;;;;;;61.38;26.27;;;11.80;99.90;;;;;;7340317;19;111428;-82
2022/04/05 01:00:32;;;;;;;51.38;26.35;;;11.80;99.90;;;;;;7342512;19;115154;-82
2022/04/05 01:03:00;;;;;;;57.97;25.77;;;11.80;99.90;;;;;;7341433;19;109944;-82
2022/04/05 01:05:28;;;;;;;51.92;24.55;;;11.80;99.90;;;;;;7340332;19;111464;-82
2022/04/05 01:07:59;;;;;;;52.10;26.25;;;11.80;99.90;;;;;;7341359;19;113628;-81
2022/04/05 01:10:32;;;;;;;54.25;25.10;;;11.90;99.90;;;;;;7347896;19;110180;-82
2022/04/05 01:12:59;;;;;;;58.72;26.70;;;11.90;99.90;;;;;;7341401;19;110545;-82
2022/04/05 01:15:26;;;;;;;51.00;24.90;;;11.90;99.90;;;;;;7341536;19;111430;-82
2022/04/05 01:17:55;;;;;;;48.83;24.70;;;11.90;99.90;;;;;;7342711;19;111413;-82
2022/04/05 01:20:23;;;;;;;49.28;25.60;;;12.00;99.90;;;;;;7341878;19;112889;-83
2022/04/05 01:22:54;;;;;;;51.88;25.70;;;11.90;99.90;;;;;;7340186;19;109879;-82
2022/04/05 01:25:22;;;;;;;48.95;24.10;;;11.90;99.90;;;;;;7341624;19;113966;-82
2022/04/05 01:27:51;;;;;;;41.22;22.88;;;11.90;99.90;;;;;;7338828;19;110739;-82
2022/04/05 01:30:18;;;;;;;44.03;24.42;;;12.00;99.90;;;;;;7348111;19;110120;-81
2022/04/05 01:32:45;;;;;;;47.95;24.92;;;11.90;99.90;;;;;;7341670;19;111355;-82
2022/04/05 01:35:14;;;;;;;54.42;25.40;;;12.00;99.90;;;;;;7341634;19;110736;-79
2022/04/05 01:37:42;;;;;;;53.53;26.15;;;11.90;99.90;;;;;;7341571;19;111085;-83
2022/04/05 01:40:10;;;;;;;44.58;24.02;;;11.90;99.90;;;;;;7339085;19;110982;-82
2022/04/05 01:42:37;;;;;;;48.25;25.27;;;12.00;99.90;;;;;;7342522;19;110444;-82
2022/04/05 01:45:05;;;;;;;47.50;26.20;;;12.00;99.90;;;;;;7340679;19;111572;-82
2022/04/05 01:47:33;;;;;;;52.92;26.63;;;12.00;99.90;;;;;;7341281;19;114129;-82
2022/04/05 01:50:00;;;;;;;52.42;26.92;;;12.00;99.90;;;;;;7340188;19;110489;-82
2022/04/05 01:52:27;;;;;;;58.58;26.50;;;12.00;99.90;;;;;;7346733;19;113600;-82
2022/04/05 01:54:54;;;;;;;51.83;26.42;;;12.00;99.90;;;;;;7341185;19;110412;-83
2022/04/05 01:57:21;;;;;;;56.70;26.27;;;12.00;99.90;;;;;;7340125;19;111274;-82
2022/04/05 01:59:48;;;;;;;53.63;25.95;;;11.90;99.90;;;;;;7337331;19;114283;-84
2022/04/05 02:02:15;;;;;;;53.88;26.27;;;11.90;99.90;;;;;;7339216;19;110688;-81
2022/04/05 02:04:43;;;;;;;51.78;25.98;;;12.00;99.90;;;;;;7338558;19;111393;-83
2022/04/05 02:07:13;;;;;;;47.78;25.23;;;12.00;99.90;;;;;;7340423;19;112304;-82
2022/04/05 02:09:42;;;;;;;56.03;26.75;;;12.00;99.90;;;;;;7338486;19;110286;-83
2022/04/05 02:12:12;;;;;;;49.67;25.70;;;12.00;99.90;;;;;;7340711;19;111362;-82
2022/04/05 02:14:39;;;;;;;54.97;25.17;;;12.00;99.90;;;;;;7344930;19;111261;-82
2022/04/05 02:17:07;;;;;;;47.72;25.35;;;12.00;99.90;;;;;;7338271;19;111494;-83
2022/04/05 02:19:36;;;;;;;46.35;24.38;;;12.00;99.90;;;;;;7337912;19;111736;-82
2022/04/05 02:22:04;;;;;;;50.70;24.08;;;12.00;99.90;;;;;;7340930;19;110637;-83
2022/04/05 02:24:31;;;;;;;55.53;23.67;;;12.00;99.90;;;;;;7340590;19;111129;-82
2022/04/05 02:26:58;;;;;;;45.08;22.85;;;12.00;99.90;;;;;;7340139;19;111712;-82
2022/04/05 02:29:25;;;;;;;42.83;21.15;;;12.10;99.90;;;;;;7337403;19;110407;-82
2022/04/05 02:31:52;;;;;;;46.25;23.63;;;12.00;99.90;;;;;;7336190;19;111711;-82
2022/04/05 02:34:19;;;;;;;43.17;21.77;;;12.00;99.90;;;;;;7338488;19;112198;-81
2022/04/05 02:36:46;;;;;;;40.78;21.33;;;12.10;99.90;;;;;;7344264;19;112584;-82
2022/04/05 02:39:14;;;;;;;42.85;21.15;;;12.00;99.90;;;;;;7339162;19;111885;-81
2022/04/05 02:41:41;;;;;;;41.95;21.17;;;12.00;99.90;;;;;;7338745;19;112550;-82
2022/04/05 02:44:08;;;;;;;43.08;21.30;;;12.00;99.90;;;;;;7339114;19;112357;-82
2022/04/05 02:46:35;;;;;;;43.63;21.67;;;12.00;99.90;;;;;;7337428;19;112100;-82
2022/04/05 02:49:03;;;;;;;44.40;23.02;;;12.00;99.90;;;;;;7337575;19;110709;-83
2022/04/05 02:51:30;;;;;;;40.85;22.17;;;12.10;99.90;;;;;;7338364;19;110611;-83
2022/04/05 02:53:59;;;;;;;40.25;20.27;;;12.10;99.90;;;;;;7339978;19;111746;-82
2022/04/05 02:56:26;;;;;;;41.15;20.67;;;12.00;99.90;;;;;;7335349;19;110080;-82
2022/04/05 02:58:53;;;;;;;41.13;20.45;;;12.10;99.90;;;;;;7341717;19;111406;-82
2022/04/05 03:01:20;;;;;;;38.72;19.88;;;12.10;99.90;;;;;;7337902;19;111607;-82
2022/04/05 03:03:47;;;;;;;35.65;18.65;;;12.10;99.90;;;;;;7338947;19;111387;-82
2022/04/05 03:06:15;;;;;;;40.10;20.92;;;12.10;99.90;;;;;;7337021;19;112534;-83
2022/04/05 03:08:42;;;;;;;39.38;19.52;;;12.10;99.90;;;;;;7337412;19;110461;-82
2022/04/05 03:11:09;;;;;;;40.53;20.08;;;12.10;99.90;;;;;;7338207;19;110898;-83
2022/04/05 03:13:36;;;;;;;38.45;19.60;;;12.10;99.90;;;;;;7339642;19;112423;-82
2022/04/05 03:16:04;;;;;;;37.65;18.95;;;12.00;99.90;;;;;;7336923;19;111739;-82
2022/04/05 03:18:31;;;;;;;38.65;18.92;;;12.00;99.90;;;;;;7338288;19;114674;-83
2022/04/05 03:20:58;;;;;;;38.80;19.20;;;12.00;99.90;;;;;;7343227;19;111713;-82
2022/04/05 03:23:26;;;;;;;41.20;19.70;;;12.00;99.90;;;;;;7339367;19;110961;-82
2022/04/05 03:25:54;;;;;;;42.05;18.63;;;12.10;99.90;;;;;;7338538;19;112535;-82
2022/04/05 03:28:21;;;;;;;44.72;20.33;;;12.10;99.90;;;;;;7338171;19;110528;-82
2022/04/05 03:30:49;;;;;;;38.70;18.27;;;12.00;99.90;;;;;;7336397;19;111376;-83
2022/04/05 03:33:16;;;;;;;36.05;17.85;;;12.00;99.90;;;;;;7337647;19;111769;-82
2022/04/05 03:35:43;;;;;;;31.80;18.45;;;12.00;99.90;;;;;;7337072;19;111346;-82
2022/04/05 03:38:11;;;;;;;30.92;17.88;;;12.10;99.90;;;;;;7338283;19;111877;-83
2022/04/05 03:40:38;;;;;;;33.50;16.88;;;12.10;99.90;;;;;;7343089;19;111766;-82
2022/04/05 03:43:07;;;;;;;37.55;17.85;;;12.00;99.90;;;;;;7337070;19;111643;-82
2022/04/05 03:45:34;;;;;;;32.25;18.05;;;12.10;99.90;;;;;;7336524;19;112969;-82
2022/04/05 03:48:01;;;;;;;32.40;16.63;;;12.00;99.90;;;;;;7337761;19;111344;-82
2022/04/05 03:50:28;;;;;;;30.27;16.33;;;12.00;99.90;;;;;;7334674;19;111568;-82
2022/04/05 03:52:57;;;;;;;33.25;16.55;;;12.00;99.90;;;;;;7337543;19;111296;-82
2022/04/05 03:55:24;;;;;;;28.83;17.20;;;12.00;99.90;;;;;;7336401;19;110051;-82
2022/04/05 03:57:51;;;;;;;29.20;16.52;;;12.00;99.90;;;;;;7336230;19;111364;-82
2022/04/05 04:00:18;;;;;;;27.52;16.55;;;12.00;99.90;;;;;;7337036;19;111763;-82
2022/04/05 04:02:46;;;;;;;28.83;15.10;;;12.10;99.90;;;;;;7341360;19;110277;-82
2022/04/05 04:05:17;;;;;;;23.00;14.60;;;12.10;99.90;;;;;;7333785;19;111878;-82
2022/04/05 04:07:45;;;;;;;28.25;16.10;;;12.10;99.90;;;;;;7331086;19;110545;-82
2022/04/05 04:10:12;;;;;;;22.25;14.93;;;12.10;99.90;;;;;;7335613;19;111729;-82
2022/04/05 04:12:39;;;;;;;21.58;14.65;;;12.00;99.90;;;;;;7336344;19;112177;-82
2022/04/05 04:15:07;;;;;;;23.25;13.95;;;12.10;99.90;;;;;;7336070;19;110528;-82
2022/04/05 04:17:34;;;;;;;24.95;15.20;;;12.00;99.90;;;;;;7336382;19;112270;-83
2022/04/05 04:20:03;;;;;;;20.92;13.95;;;12.00;99.90;;;;;;7335491;19;111255;-82
2022/04/05 04:22:30;;;;;;;21.63;14.55;;;12.00;99.90;;;;;;7340460;19;110300;-83
2022/04/05 04:24:57;;;;;;;21.92;15.00;;;12.00;99.90;;;;;;7346465;19;111418;-82
2022/04/05 04:27:25;;;;;;;19.50;13.50;;;12.00;99.90;;;;;;7339448;19;110763;-82
2022/04/05 04:29:52;;;;;;;26.00;14.68;;;12.00;99.90;;;;;;7338426;19;111372;-82
2022/04/05 04:32:19;;;;;;;21.63;13.93;;;12.00;99.90;;;;;;7338162;19;112247;-82
2022/04/05 04:34:47;;;;;;;26.70;15.23;;;12.10;99.90;;;;;;7337770;19;110311;-82
2022/04/05 04:37:14;;;;;;;26.48;14.77;;;12.10;99.90;;;;;;7339833;19;112124;-81
2022/04/05 04:39:41;;;;;;;22.23;14.27;;;12.00;99.90;;;;;;7338162;19;111000;-82
2022/04/05 04:42:08;;;;;;;24.00;16.17;;;12.10;99.90;;;;;;7338902;19;110487;-82
2022/04/05 04:44:35;;;;;;;25.08;16.25;;;12.10;99.90;;;;;;7340563;19;111266;-82
2022/04/05 04:47:03;;;;;;;21.90;15.90;;;12.00;99.90;;;;;;7343351;19;111780;-82
2022/04/05 04:49:30;;;;;;;22.65;15.80;;;12.00;99.90;;;;;;7337379;19;111707;-82
2022/04/05 04:51:57;;;;;;;30.73;16.40;;;12.00;99.90;;;;;;7339366;19;111793;-81
2022/04/05 04:54:24;;;;;;;25.05;16.15;;;12.00;99.90;;;;;;7338411;19;111666;-82
2022/04/05 04:56:51;;;;;;;28.60;17.75;;;12.00;99.90;;;;;;7337892;19;111472;-82
2022/04/05 04:59:18;;;;;;;25.55;16.60;;;12.00;99.90;;;;;;7338838;19;111760;-81
2022/04/05 05:01:45;;;;;;;29.60;18.13;;;12.00;99.90;;;;;;7337980;19;110421;-82
2022/04/05 05:04:13;;;;;;;32.08;18.67;;;12.00;99.90;;;;;;7335901;19;112412;-82
2022/04/05 05:06:40;;;;;;;29.42;20.00;;;12.00;99.90;;;;;;7337129;19;112111;-81
2022/04/05 05:09:07;;;;;;;36.78;19.65;;;12.00;99.90;;;;;;7341184;19;110619;-82
2022/04/05 05:11:34;;;;;;;32.33;21.13;;;12.00;99.90;;;;;;7335733;19;111945;-81
2022/04/05 05:14:02;;;;;;;38.50;21.33;;;12.00;99.90;;;;;;7338484;19;110202;-81
2022/04/05 05:16:33;;;;;;;30.23;20.05;;;12.00;99.90;;;;;;7336574;19;111400;-81
2022/04/05 05:19:00;;;;;;;29.58;20.52;;;12.00;99.90;;;;;;7338596;19;111784;-80
2022/04/05 05:21:28;;;;;;;38.83;22.50;;;12.00;99.90;;;;;;7338887;19;110137;-82
2022/04/05 05:23:55;;;;;;;41.53;25.38;;;12.00;99.90;;;;;;7340365;19;111598;-81
2022/04/05 05:26:22;;;;;;;38.28;24.80;;;12.00;99.90;;;;;;7345766;19;111797;-81
2022/04/05 05:28:49;;;;;;;39.08;24.75;;;12.00;99.90;;;;;;7343649;19;110286;-81
2022/04/05 05:31:16;;;;;;;44.95;26.73;;;12.00;99.90;;;;;;7342876;19;110295;-81
2022/04/05 05:33:43;;;;;;;42.00;25.95;;;12.00;99.90;;;;;;7340879;19;110153;-80
2022/04/05 05:36:10;;;;;;;40.63;25.92;;;12.10;99.90;;;;;;7340122;19;111422;-80
2022/04/05 05:38:37;;;;;;;40.65;25.55;;;12.10;99.90;;;;;;7336970;19;111699;-83
2022/04/05 05:41:05;;;;;;;49.50;29.65;;;12.00;99.90;;;;;;7338964;19;111116;-80
2022/04/05 05:43:33;;;;;;;36.72;24.73;;;12.10;99.90;;;;;;7338806;19;112185;-80
2022/04/05 05:46:03;;;;;;;36.22;24.92;;;12.00;99.90;;;;;;7340406;19;111894;-81
2022/04/05 05:48:30;;;;;;;40.47;25.95;;;12.10;99.90;;;;;;7340215;19;110296;-81
2022/04/05 05:50:58;;;;;;;42.42;25.25;;;12.00;99.90;;;;;;7341091;19;112054;-81
2022/04/05 05:53:25;;;;;;;47.15;29.05;;;12.00;99.90;;;;;;7341102;19;110567;-81
2022/04/05 05:55:52;;;;;;;36.55;24.85;;;12.10;99.90;;;;;;7340555;19;113625;-81
2022/04/05 05:58:20;;;;;;;37.30;25.65;;;12.00;99.90;;;;;;7337097;19;111779;-81
2022/04/05 06:00:47;;;;;;;34.35;23.33;;;12.10;99.90;;;;;;7337519;19;110900;-82
2022/04/05 06:03:14;;;;;;;29.00;21.40;;;12.10;99.90;;;;;;7337192;19;116565;-81
2022/04/05 06:05:43;;;;;;;27.67;21.80;;;12.10;99.90;;;;;;7339368;19;111518;-81
2022/04/05 06:08:10;;;;;;;30.23;20.80;;;12.10;99.90;;;;;;7339163;19;110363;-80
2022/04/05 06:10:37;;;;;;;36.97;22.67;;;12.10;99.90;;;;;;7337267;19;111727;-81
2022/04/05 06:13:04;;;;;;;36.20;22.40;;;12.10;99.90;;;;;;7346231;19;113191;-81
2022/04/05 06:15:32;;;;;;;28.88;19.90;;;12.10;99.90;;;;;;7341491;19;111875;-82
2022/04/05 06:17:59;;;;;;;27.48;19.17;;;12.10;99.90;;;;;;7340633;19;111767;-82
2022/04/05 06:20:28;;;;;;;25.98;18.77;;;12.10;99.90;;;;;;7339555;19;114811;-80
2022/04/05 06:22:56;;;;;;;26.13;18.58;;;12.10;99.90;;;;;;7339210;19;111701;-81
2022/04/05 06:25:29;;;;;;;27.15;18.38;;;12.10;99.90;;;;;;7337313;19;111581;-81
2022/04/05 06:27:57;;;;;;;22.13;17.65;;;12.20;99.90;;;;;;7338631;19;111088;-81
2022/04/05 06:30:25;;;;;;;25.92;17.63;;;12.10;99.90;;;;;;7336432;19;111406;-81
2022/04/05 06:33:13;;;;;;;23.23;17.23;;;12.10;99.90;;;;;;7338755;19;113063;-81
2022/04/05 06:35:43;;;;;;;24.40;18.15;;;12.10;99.90;;;;;;7344778;19;110570;-81
2022/04/05 06:38:11;;;;;;;24.73;16.73;;;12.10;99.90;;;;;;7337201;19;112206;-81
2022/04/05 06:40:41;;;;;;;23.83;17.05;;;12.10;99.90;;;;;;7337093;19;110140;-81
2022/04/05 06:43:08;;;;;;;23.35;16.90;;;12.10;99.90;;;;;;7339032;19;111430;-82
2022/04/05 06:45:35;;;;;;;26.95;17.02;;;12.10;99.90;;;;;;7337573;19;111843;-82
2022/04/05 06:48:03;;;;;;;22.73;16.60;;;12.10;99.90;;;;;;7339282;19;110440;-82
2022/04/05 06:50:30;;;;;;;24.77;16.08;;;12.10;99.90;;;;;;7339100;19;110351;-83
2022/04/05 06:52:59;;;;;;;22.88;15.27;;;12.20;99.90;;;;;;7340526;19;112021;-81
2022/04/05 06:55:27;;;;;;;18.83;14.45;;;12.20;99.90;;;;;;7341821;19;110491;-82
2022/04/05 06:57:55;;;;;;;22.92;15.52;;;12.20;99.90;;;;;;7348609;19;111530;-82
2022/04/05 07:00:23;;;;;;;23.70;15.43;;;12.20;99.90;;;;;;7338715;19;110136;-81
2022/04/05 07:02:54;;;;;;;19.63;16.13;;;12.20;99.90;;;;;;7339697;19;112614;-82
2022/04/05 07:05:22;;;;;;;26.27;16.92;;;12.20;99.90;;;;;;7334237;19;112076;-82
2022/04/05 07:07:50;;;;;;;19.25;16.60;;;12.20;99.90;;;;;;7338845;19;110421;-82
2022/04/05 07:10:19;;;;;;;23.85;16.48;;;12.20;99.90;;;;;;7336979;19;111376;-81
2022/04/05 07:12:47;;;;;;;26.75;17.08;;;12.20;99.90;;;;;;7338424;19;111950;-81
2022/04/05 07:15:15;;;;;;;22.92;15.68;;;12.30;99.90;;;;;;7338479;19;112438;-82
2022/04/05 07:17:43;;;;;;;22.23;16.55;;;12.30;99.90;;;;;;7337019;19;111481;-82
2022/04/05 07:20:30;;;;;;;19.42;16.15;;;12.30;99.90;;;;;;7342487;19;111756;-82
2022/04/05 07:22:57;;;;;;;24.38;16.48;;;12.30;99.90;;;;;;7336341;19;111475;-81
2022/04/05 07:25:24;;;;;;;21.77;15.88;;;12.30;99.90;;;;;;7339449;19;112090;-81
2022/04/05 07:27:52;;;;;;;19.13;15.20;;;12.30;99.90;;;;;;7337332;19;110765;-81
2022/04/05 07:30:21;;;;;;;19.45;15.73;;;12.30;99.90;;;;;;7336135;19;111347;-80
2022/04/05 07:32:48;;;;;;;24.98;17.48;;;12.30;99.90;;;;;;7338556;19;111125;-81
2022/04/05 07:35:17;;;;;;;22.70;16.10;;;12.30;99.90;;;;;;7336350;19;110656;-81
2022/04/05 07:37:45;;;;;;;22.30;16.33;;;12.40;99.90;;;;;;7336429;19;111499;-82
2022/04/05 07:40:13;;;;;;;19.83;16.52;;;12.40;99.90;;;;;;7343667;19;112066;-81
2022/04/05 07:42:42;;;;;;;20.23;16.23;;;12.40;99.90;;;;;;7337387;19;110604;-80
2022/04/05 07:45:11;;;;;;;21.73;16.33;;;12.40;99.90;;;;;;7338160;19;111611;-81
2022/04/05 07:47:39;;;;;;;20.67;17.05;;;12.40;99.90;;;;;;7336722;19;110636;-82
2022/04/05 07:50:07;;;;;;;18.48;16.30;;;12.40;99.90;;;;;;7335576;19;113396;-81
2022/04/05 07:52:38;;;;;;;22.42;17.08;;;12.40;99.90;;;;;;7336040;19;111575;-81
2022/04/05 07:55:06;;;;;;;21.50;17.27;;;12.40;99.90;;;;;;7338557;19;110953;-82
2022/04/05 07:57:36;;;;;;;19.10;16.40;;;12.40;99.90;;;;;;7336049;19;111075;-81
2022/04/05 08:00:05;;;;;;;25.95;18.10;;;12.40;99.90;;;;;;7337879;19;113171;-81
2022/04/05 08:02:32;;;;;;;23.27;17.92;;;12.40;99.90;;;;;;7341847;19;111206;-83
2022/04/05 08:05:12;;;;;;;23.02;17.90;;;12.50;99.90;;;;;;7335069;19;110796;-81
2022/04/05 08:07:39;;;;;;;24.63;17.30;;;12.40;99.90;;;;;;7336809;19;111810;-82
2022/04/05 08:10:07;;;;;;;24.55;18.30;;;12.50;99.90;;;;;;7338501;19;111656;-82
2022/04/05 08:12:39;;;;;;;24.02;19.38;;;12.60;99.90;;;;;;7339113;19;111234;-82
2022/04/05 08:15:07;;;;;;;24.20;18.95;;;12.60;99.90;;;;;;7335550;19;110380;-81
2022/04/05 08:17:34;;;;;;;24.35;18.75;;;12.60;99.90;;;;;;7338046;19;111902;-81
2022/04/05 08:20:01;;;;;;;26.90;18.77;;;12.60;99.90;;;;;;7336715;19;112441;-81
2022/04/05 08:22:28;;;;;;;23.63;18.38;;;12.60;99.90;;;;;;7336942;19;110681;-82
2022/04/05 08:24:55;;;;;;;23.27;18.30;;;12.60;99.90;;;;;;7341149;19;110895;-82
2022/04/05 08:27:23;;;;;;;22.77;19.08;;;12.60;99.90;;;;;;7336169;19;110580;-82
2022/04/05 08:29:50;;;;;;;26.30;18.88;;;12.60;99.90;;;;;;7336022;19;110830;-81
2022/04/05 08:32:17;;;;;;;21.15;18.00;;;12.70;99.90;;;;;;7332690;19;111666;-83
2022/04/05 08:34:45;;;;;;;22.92;17.70;;;12.60;99.90;;;;;;7333549;19;110542;-81
2022/04/05 08:37:13;;;;;;;22.30;17.55;;;12.70;99.90;;;;;;7331094;19;111402;-82
2022/04/05 08:39:40;;;;;;;19.58;16.90;;;12.70;99.90;;;;;;7332159;19;112973;-81
2022/04/05 08:42:07;;;;;;;19.30;16.63;;;12.70;99.90;;;;;;7328319;19;110288;-82
2022/04/05 08:44:35;;;;;;;20.83;18.38;;;12.80;99.90;;;;;;7334329;19;112223;-81
2022/04/05 08:47:03;;;;;;;19.70;16.63;;;12.80;99.90;;;;;;7339624;19;110827;-81
2022/04/05 08:49:31;;;;;;;23.23;16.90;;;12.80;99.90;;;;;;7334021;19;111590;-81
2022/04/05 08:51:58;;;;;;;23.65;16.85;;;12.80;99.90;;;;;;7330620;19;111322;-81
2022/04/05 08:54:25;;;;;;;18.33;16.15;;;12.80;99.90;;;;;;7340495;19;110139;-82
2022/04/05 08:56:52;;;;;;;20.83;16.02;;;12.70;99.90;;;;;;7343619;19;114468;-82
2022/04/05 08:59:20;;;;;;;20.13;16.05;;;12.80;99.90;;;;;;7340712;19;110738;-81
2022/04/05 09:01:47;;;;;;;16.83;15.05;;;12.90;99.90;;;;;;7341578;19;110176;-82
2022/04/05 09:04:14;;;;;;;19.05;15.73;;;13.00;99.90;;;;;;7342133;19;111429;-82
2022/04/05 09:06:41;;;;;;;20.63;15.48;;;12.90;99.90;;;;;;7340788;19;111846;-82
2022/04/05 09:09:18;;;;;;;16.35;14.40;;;12.90;99.90;;;;;;7348636;19;113254;-82
2022/04/05 09:11:53;;;;;;;18.73;15.15;;;12.90;99.90;;;;;;7339309;19;115831;-82
2022/04/05 09:14:24;;;;;;;19.42;14.98;;;12.90;99.90;;;;;;7339672;19;111430;-82
2022/04/05 09:17:06;;;;;;;16.85;15.10;;;12.90;99.90;;;;;;7342725;19;111517;-82
2022/04/05 09:19:38;;;;;;;21.85;15.23;;;13.00;99.90;;;;;;7339417;19;114041;-82
2022/04/05 09:22:05;;;;;;;21.75;15.45;;;13.00;99.90;;;;;;7341455;19;110708;-82
2022/04/05 09:24:38;;;;;;;19.10;16.42;;;13.00;99.90;;;;;;7342866;19;111494;-82
2022/04/05 09:27:06;;;;;;;22.63;15.00;;;12.90;99.90;;;;;;7342206;19;112116;-82
2022/04/05 09:29:40;;;;;;;19.40;16.00;;;13.00;99.90;;;;;;7340474;19;110308;-82
2022/04/05 09:32:07;;;;;;;20.55;15.70;;;13.00;99.90;;;;;;7344293;19;111437;-82
2022/04/05 09:34:48;;;;;;;19.58;16.67;;;12.90;99.90;;;;;;7340368;19;113495;-82
2022/04/05 09:37:16;;;;;;;22.13;16.80;;;12.90;99.90;;;;;;7340516;19;115981;-82
2022/04/05 09:39:43;;;;;;;19.33;16.45;;;13.00;99.90;;;;;;7340376;19;112046;-82
2022/04/05 09:42:10;;;;;;;20.52;17.70;;;13.00;99.90;;;;;;7341700;19;110223;-82
2022/04/05 09:44:42;;;;;;;18.23;16.35;;;13.00;99.90;;;;;;7341435;19;111886;-82
2022/04/05 09:47:21;;;;;;;18.02;16.20;;;13.00;99.90;;;;;;7341598;19;111904;-82
2022/04/05 09:49:49;;;;;;;19.52;17.42;;;13.10;99.90;;;;;;7342160;19;110247;-82
2022/04/05 09:52:27;;;;;;;20.00;17.45;;;13.00;99.90;;;;;;7344246;19;111924;-81
2022/04/05 09:54:55;;;;;;;19.95;17.80;;;13.00;99.90;;;;;;7341281;19;110141;-81
2022/04/05 09:57:30;;;;;;;20.27;17.23;;;13.00;99.90;;;;;;7340834;19;111397;-82
2022/04/05 10:00:16;;;;;;;18.33;16.33;;;13.00;99.90;;;;;;7341150;19;111685;-81
2022/04/05 10:03:01;;;;;;;20.30;15.80;;;13.10;99.90;;;;;;7339922;19;110587;-82
2022/04/05 10:05:32;;;;;;;20.75;16.45;;;13.10;99.90;;;;;;7333697;19;111400;-82
2022/04/05 10:08:01;;;;;;;20.52;17.92;;;13.10;99.90;;;;;;7340702;19;110663;-82
2022/04/05 10:10:28;;;;;;;18.63;16.65;;;13.10;99.90;;;;;;7341579;19;111019;-82
2022/04/05 10:12:55;;;;;;;18.90;16.73;;;13.20;99.90;;;;;;7338391;19;110895;-82
2022/04/05 10:15:24;;;;;;;21.23;16.73;;;13.30;99.90;;;;;;7346453;19;112105;-82
2022/04/05 10:17:53;;;;;;;18.65;16.00;;;13.20;99.90;;;;;;7340530;19;111365;-82
2022/04/05 10:20:22;;;;;;;18.30;16.40;;;13.20;99.90;;;;;;7338244;19;113881;-82
2022/04/05 10:22:54;;;;;;;17.88;15.98;;;13.20;99.90;;;;;;7340145;19;113546;-82
2022/04/05 10:25:22;;;;;;;18.25;14.55;;;13.20;99.90;;;;;;7339700;19;112575;-81
2022/04/05 10:27:49;;;;;;;15.75;14.07;;;13.30;99.90;;;;;;7338003;19;111803;-83
2022/04/05 10:30:20;;;;;;;15.63;13.63;;;13.30;99.90;;;;;;7341528;19;110812;-82
2022/04/05 10:33:10;;;;;;;13.75;12.45;;;13.30;99.90;;;;;;7335430;19;111832;-82
2022/04/05 10:35:53;;;;;;;13.95;12.50;;;13.40;99.90;;;;;;7339596;19;112116;-82
2022/04/05 10:38:21;;;;;;;14.80;13.50;;;13.40;99.90;;;;;;7345387;19;110673;-82
2022/04/05 10:41:14;;;;;;;14.18;12.77;;;13.50;99.90;;;;;;7338400;19;111523;-82
2022/04/05 10:43:42;;;;;;;13.82;12.40;;;13.60;99.90;;;;;;7340067;19;110348;-83
2022/04/05 10:46:10;;;;;;;14.43;12.93;;;13.70;99.90;;;;;;7339914;19;111551;-82
2022/04/05 10:48:54;;;;;;;15.15;13.43;;;13.70;99.90;;;;;;7340064;19;110589;-83
2022/04/05 10:51:30;;;;;;;14.50;13.30;;;13.80;99.90;;;;;;7339022;19;114299;-82
2022/04/05 10:54:18;;;;;;;12.43;11.15;;;13.80;99.90;;;;;;7340250;19;112754;-82
2022/04/05 10:57:26;;;;;;;12.25;10.90;;;14.00;99.90;;;;;;7339710;19;111734;-82
2022/04/05 10:59:58;;;;;;;11.88;10.77;;;14.00;99.90;;;;;;7338134;19;110310;-83
2022/04/05 11:03:01;;;;;;;13.50;10.95;;;14.00;99.90;;;;;;7345339;19;111553;-82
2022/04/05 11:05:36;;;;;;;12.00;10.95;;;14.00;99.90;;;;;;7336076;19;110567;-82
2022/04/05 11:08:09;;;;;;;14.45;11.00;;;14.10;99.90;;;;;;7338875;19;110823;-83
2022/04/05 11:10:36;;;;;;;12.85;11.50;;;14.10;99.90;;;;;;7339595;19;111935;-82
2022/04/05 11:13:05;;;;;;;11.88;10.73;;;14.10;99.90;;;;;;7337179;19;110549;-83
2022/04/05 11:15:46;;;;;;;11.07;10.07;;;14.20;99.90;;;;;;7338865;19;112755;-82
2022/04/05 11:18:15;;;;;;;10.35;9.27;;;14.20;99.90;;;;;;7338840;19;111741;-82
2022/04/05 11:20:45;;;;;;;9.13;8.32;;;14.20;99.90;;;;;;7339971;19;110511;-82
2022/04/05 11:23:14;;;;;;;9.63;8.55;;;14.20;99.90;;;;;;7339123;19;108528;-82
2022/04/05 11:25:44;;;;;;;9.88;9.07;;;14.10;99.90;;;;;;7347573;19;111125;-82
2022/04/05 11:28:19;;;;;;;10.35;9.35;;;14.10;99.90;;;;;;7342013;19;108962;-82
2022/04/05 11:31:04;;;;;;;10.30;9.45;;;14.10;99.90;;;;;;7340144;19;108647;-82
2022/04/05 11:33:31;;;;;;;10.00;9.18;;;14.30;99.90;;;;;;7336641;19;110311;-82
2022/04/05 11:36:25;;;;;;;9.18;8.45;;;14.30;99.90;;;;;;7341354;19;108276;-82
2022/04/05 11:38:57;;;;;;;9.82;9.02;;;14.50;99.90;;;;;;7340564;19;111964;-83
2022/04/05 11:41:31;;;;;;;11.90;9.40;;;14.50;99.90;;;;;;7339594;19;110361;-82
2022/04/05 11:44:03;;;;;;;11.35;8.65;;;14.60;99.90;;;;;;7339539;19;108444;-83
2022/04/05 11:46:34;;;;;;;7.70;6.88;;;14.60;99.90;;;;;;7339235;19;109252;-82
2022/04/05 11:49:07;;;;;;;7.38;6.75;;;14.60;99.90;;;;;;7346722;19;113066;-82
2022/04/05 11:51:36;;;;;;;7.88;7.07;;;14.60;99.90;;;;;;7339742;19;109447;-82
2022/04/05 11:54:12;;;;;;;7.97;7.28;;;14.60;99.90;;;;;;7340733;19;110187;-82
2022/04/05 11:56:41;;;;;;;8.45;7.72;;;14.60;99.90;;;;;;7339532;19;108266;-82
2022/04/05 11:59:11;;;;;;;10.13;9.32;;;14.60;99.90;;;;;;7340500;19;113403;-83
2022/04/05 12:01:40;;;;;;;10.20;9.30;;;14.60;99.90;;;;;;7341254;19;109820;-82
2022/04/05 12:04:12;;;;;;;9.38;8.57;;;14.70;99.90;;;;;;7337859;19;108599;-82
2022/04/05 12:06:42;;;;;;;7.85;5.70;;;14.70;99.90;;;;;;7339055;19;109429;-83
2022/04/05 12:09:14;;;;;;;8.52;7.78;;;14.70;99.90;;;;;;7344515;19;110159;-83
2022/04/05 12:11:47;;;;;;;8.82;8.13;;;14.70;99.90;;;;;;7340948;19;109752;-82
2022/04/05 12:14:16;;;;;;;11.57;10.38;;;14.70;99.90;;;;;;7340282;19;110198;-82
2022/04/05 12:16:56;;;;;;;12.75;11.50;;;14.70;99.90;;;;;;7337303;19;110319;-83
2022/04/05 12:19:25;;;;;;;12.18;10.98;;;14.70;99.90;;;;;;7334553;19;111722;-83
2022/04/05 12:21:57;;;;;;;11.70;10.63;;;14.70;99.90;;;;;;7334933;19;110234;-83
2022/04/05 12:24:25;;;;;;;10.07;9.27;;;14.80;99.90;;;;;;7337008;19;111513;-82
2022/04/05 12:26:55;;;;;;;12.27;11.27;;;14.90;99.90;;;;;;7338213;19;112340;-83
2022/04/05 12:29:24;;;;;;;13.45;12.25;;;14.80;99.90;;;;;;7340031;19;110344;-83